sensor_id;sensor_type;location;lat;lon;timestamp;pressure;altitude;pressure_sealevel;temperature;humidity
37892;BME280;45797;47.466;9.486;2023-01-01T00:03:50;96333.16;;;13.21;61.66
37892;BME280;45797;47.466;9.486;2023-01-01T00:08:58;96316.56;;;13.07;62.03
37892;BME280;45797;47.466;9.486;2023-01-01T00:14:16;96325.22;;;12.97;61.59
37892;BME280;45797;47.466;9.486;2023-01-01T00:19:17;96330.16;;;12.77;62.69
37892;BME280;45797;47.466;9.486;2023-01-01T00:24:22;96316.09;;;12.66;62.76
37892;BME280;45797;47.466;9.486;2023-01-01T00:29:24;96320.34;;;12.55;63.12
37892;BME280;45797;47.466;9.486;2023-01-01T00:34:26;96318.47;;;12.45;62.81
37892;BME280;45797;47.466;9.486;2023-01-01T00:39:31;96325.84;;;12.40;63.26
37892;BME280;45797;47.466;9.486;2023-01-01T00:44:38;96324.38;;;12.36;63.08
37892;BME280;45797;47.466;9.486;2023-01-01T00:49:59;96314.94;;;12.33;62.86
37892;BME280;45797;47.466;9.486;2023-01-01T00:55:09;96322.38;;;12.39;63.01
37892;BME280;45797;47.466;9.486;2023-01-01T01:00:10;96342.97;;;12.45;62.33
37892;BME280;45797;47.466;9.486;2023-01-01T01:05:14;96345.19;;;12.51;62.64
37892;BME280;45797;47.466;9.486;2023-01-01T01:15:46;96331.22;;;12.75;61.89
37892;BME280;45797;47.466;9.486;2023-01-01T01:20:52;96331.91;;;12.90;61.23
37892;BME280;45797;47.466;9.486;2023-01-01T01:25:53;96331.78;;;12.91;61.54
37892;BME280;45797;47.466;9.486;2023-01-01T01:30:58;96334.53;;;12.90;61.49
37892;BME280;45797;47.466;9.486;2023-01-01T01:36:01;96337.91;;;12.92;61.51
37892;BME280;45797;47.466;9.486;2023-01-01T01:41:08;96331.13;;;13.00;61.41
37892;BME280;45797;47.466;9.486;2023-01-01T01:46:43;96313.56;;;13.01;61.45
37892;BME280;45797;47.466;9.486;2023-01-01T01:51:45;96307.75;;;13.08;61.36
37892;BME280;45797;47.466;9.486;2023-01-01T01:56:49;96310.13;;;13.11;61.23
37892;BME280;45797;47.466;9.486;2023-01-01T02:02:05;96316.56;;;13.07;61.15
37892;BME280;45797;47.466;9.486;2023-01-01T02:07:09;96322.28;;;13.01;61.36
37892;BME280;45797;47.466;9.486;2023-01-01T02:12:11;96310.25;;;12.86;61.53
37892;BME280;45797;47.466;9.486;2023-01-01T02:18:00;96288.72;;;12.81;62.01
37892;BME280;45797;47.466;9.486;2023-01-01T02:28:36;96277.19;;;12.71;62.04
37892;BME280;45797;47.466;9.486;2023-01-01T02:33:43;96302.47;;;12.61;62.23
37892;BME280;45797;47.466;9.486;2023-01-01T02:38:49;96336.75;;;12.46;62.60
37892;BME280;45797;47.466;9.486;2023-01-01T02:44:06;96334.06;;;12.35;62.90
37892;BME280;45797;47.466;9.486;2023-01-01T02:49:08;96335.72;;;12.36;62.75
37892;BME280;45797;47.466;9.486;2023-01-01T02:54:32;96314.31;;;12.29;62.66
37892;BME280;45797;47.466;9.486;2023-01-01T03:00:04;96320.72;;;12.25;62.72
37892;BME280;45797;47.466;9.486;2023-01-01T03:11:15;96337.97;;;12.17;62.90
37892;BME280;45797;47.466;9.486;2023-01-01T03:16:54;96333.66;;;12.16;62.92
37892;BME280;45797;47.466;9.486;2023-01-01T03:22:15;96325.16;;;12.12;63.04
37892;BME280;45797;47.466;9.486;2023-01-01T03:27:30;96321.25;;;12.18;62.75
37892;BME280;45797;47.466;9.486;2023-01-01T03:32:54;96332.06;;;12.26;62.76
37892;BME280;45797;47.466;9.486;2023-01-01T03:38:28;96339.63;;;12.30;62.46
37892;BME280;45797;47.466;9.486;2023-01-01T03:43:54;96337.00;;;12.30;62.33
37892;BME280;45797;47.466;9.486;2023-01-01T03:49:06;96335.97;;;12.33;62.46
37892;BME280;45797;47.466;9.486;2023-01-01T03:54:17;96333.84;;;12.38;62.47
37892;BME280;45797;47.466;9.486;2023-01-01T04:04:48;96373.78;;;12.43;62.02
37892;BME280;45797;47.466;9.486;2023-01-01T04:09:51;96381.44;;;12.46;62.31
37892;BME280;45797;47.466;9.486;2023-01-01T04:15:02;96390.75;;;12.50;61.99
37892;BME280;45797;47.466;9.486;2023-01-01T04:20:07;96374.56;;;12.56;61.70
37892;BME280;45797;47.466;9.486;2023-01-01T04:25:24;96372.19;;;12.53;61.77
37892;BME280;45797;47.466;9.486;2023-01-01T04:30:33;96370.38;;;12.54;61.83
37892;BME280;45797;47.466;9.486;2023-01-01T04:35:35;96372.69;;;12.58;61.81
37892;BME280;45797;47.466;9.486;2023-01-01T04:40:36;96372.47;;;12.62;61.81
37892;BME280;45797;47.466;9.486;2023-01-01T04:45:37;96385.69;;;12.60;61.59
37892;BME280;45797;47.466;9.486;2023-01-01T04:50:43;96387.41;;;12.61;61.68
37892;BME280;45797;47.466;9.486;2023-01-01T04:55:43;96378.34;;;12.65;61.61
37892;BME280;45797;47.466;9.486;2023-01-01T05:00:52;96368.25;;;12.72;61.38
37892;BME280;45797;47.466;9.486;2023-01-01T05:06:12;96372.00;;;12.80;61.16
37892;BME280;45797;47.466;9.486;2023-01-01T05:11:19;96389.09;;;12.99;60.41
37892;BME280;45797;47.466;9.486;2023-01-01T05:16:22;96393.56;;;13.09;60.41
37892;BME280;45797;47.466;9.486;2023-01-01T05:21:30;96395.66;;;13.17;60.10
37892;BME280;45797;47.466;9.486;2023-01-01T05:26:41;96386.06;;;13.16;60.00
37892;BME280;45797;47.466;9.486;2023-01-01T05:31:55;96371.56;;;13.23;59.88
37892;BME280;45797;47.466;9.486;2023-01-01T05:36:57;96376.31;;;13.42;59.68
37892;BME280;45797;47.466;9.486;2023-01-01T05:41:59;96379.25;;;13.61;58.99
37892;BME280;45797;47.466;9.486;2023-01-01T05:47:17;96387.09;;;13.85;58.40
37892;BME280;45797;47.466;9.486;2023-01-01T05:52:23;96379.38;;;14.06;58.14
37892;BME280;45797;47.466;9.486;2023-01-01T05:57:24;96395.06;;;14.19;57.94
37892;BME280;45797;47.466;9.486;2023-01-01T06:02:29;96389.91;;;14.28;57.65
37892;BME280;45797;47.466;9.486;2023-01-01T06:07:30;96408.88;;;14.22;57.89
37892;BME280;45797;47.466;9.486;2023-01-01T06:12:33;96398.50;;;13.97;58.48
37892;BME280;45797;47.466;9.486;2023-01-01T06:17:33;96400.00;;;13.77;59.04
37892;BME280;45797;47.466;9.486;2023-01-01T06:22:35;96396.03;;;13.71;59.02
37892;BME280;45797;47.466;9.486;2023-01-01T06:27:36;96383.38;;;13.77;58.85
37892;BME280;45797;47.466;9.486;2023-01-01T06:32:37;96384.69;;;13.82;58.58
37892;BME280;45797;47.466;9.486;2023-01-01T06:37:37;96392.00;;;13.79;58.65
37892;BME280;45797;47.466;9.486;2023-01-01T06:42:38;96401.09;;;13.75;58.74
37892;BME280;45797;47.466;9.486;2023-01-01T06:47:41;96405.72;;;13.71;58.71
37892;BME280;45797;47.466;9.486;2023-01-01T06:52:51;96405.56;;;13.61;58.84
37892;BME280;45797;47.466;9.486;2023-01-01T06:58:02;96401.78;;;13.65;59.02
37892;BME280;45797;47.466;9.486;2023-01-01T07:03:09;96397.56;;;13.63;59.04
37892;BME280;45797;47.466;9.486;2023-01-01T07:08:11;96409.38;;;13.57;59.58
37892;BME280;45797;47.466;9.486;2023-01-01T07:13:13;96420.81;;;13.45;59.09
37892;BME280;45797;47.466;9.486;2023-01-01T07:18:14;96428.44;;;13.37;59.41
37892;BME280;45797;47.466;9.486;2023-01-01T07:23:20;96426.47;;;13.28;59.90
37892;BME280;45797;47.466;9.486;2023-01-01T07:28:23;96435.41;;;13.25;59.93
37892;BME280;45797;47.466;9.486;2023-01-01T07:33:34;96431.94;;;13.25;59.25
37892;BME280;45797;47.466;9.486;2023-01-01T07:38:36;96432.22;;;13.33;59.13
37892;BME280;45797;47.466;9.486;2023-01-01T07:43:40;96435.16;;;13.41;59.64
37892;BME280;45797;47.466;9.486;2023-01-01T07:48:50;96443.16;;;13.39;59.39
37892;BME280;45797;47.466;9.486;2023-01-01T07:53:57;96442.19;;;13.40;59.49
37892;BME280;45797;47.466;9.486;2023-01-01T07:58:58;96447.13;;;13.45;59.30
37892;BME280;45797;47.466;9.486;2023-01-01T08:03:58;96445.84;;;13.51;59.12
37892;BME280;45797;47.466;9.486;2023-01-01T08:09:12;96454.03;;;13.59;59.08
37892;BME280;45797;47.466;9.486;2023-01-01T08:14:15;96455.03;;;13.69;58.95
37892;BME280;45797;47.466;9.486;2023-01-01T08:19:16;96455.41;;;13.76;59.04
37892;BME280;45797;47.466;9.486;2023-01-01T08:24:32;96464.47;;;13.71;58.94
37892;BME280;45797;47.466;9.486;2023-01-01T08:29:40;96466.06;;;13.74;58.67
37892;BME280;45797;47.466;9.486;2023-01-01T08:34:40;96478.66;;;13.82;58.87
37892;BME280;45797;47.466;9.486;2023-01-01T08:39:41;96461.56;;;13.87;58.60
37892;BME280;45797;47.466;9.486;2023-01-01T08:44:44;96453.31;;;13.92;58.75
37892;BME280;45797;47.466;9.486;2023-01-01T08:49:47;96466.03;;;13.98;58.49
37892;BME280;45797;47.466;9.486;2023-01-01T08:54:48;96468.94;;;14.06;58.10
37892;BME280;45797;47.466;9.486;2023-01-01T08:59:49;96482.72;;;14.21;58.42
37892;BME280;45797;47.466;9.486;2023-01-01T09:04:50;96486.47;;;14.29;57.93
37892;BME280;45797;47.466;9.486;2023-01-01T09:09:53;96491.13;;;14.50;57.67
37892;BME280;45797;47.466;9.486;2023-01-01T09:14:54;96489.59;;;14.70;57.27
37892;BME280;45797;47.466;9.486;2023-01-01T09:19:55;96483.72;;;14.89;56.67
37892;BME280;45797;47.466;9.486;2023-01-01T09:24:56;96484.28;;;15.14;56.43
37892;BME280;45797;47.466;9.486;2023-01-01T09:30:00;96474.22;;;15.31;56.17
37892;BME280;45797;47.466;9.486;2023-01-01T09:35:03;96475.84;;;15.43;56.16
37892;BME280;45797;47.466;9.486;2023-01-01T09:40:05;96479.78;;;15.60;55.89
37892;BME280;45797;47.466;9.486;2023-01-01T09:50:46;96482.09;;;15.96;55.53
37892;BME280;45797;47.466;9.486;2023-01-01T09:55:59;96477.66;;;16.18;55.26
37892;BME280;45797;47.466;9.486;2023-01-01T10:12:35;96473.22;;;16.60;54.67
37892;BME280;45797;47.466;9.486;2023-01-01T10:17:44;96473.38;;;16.79;54.62
37892;BME280;45797;47.466;9.486;2023-01-01T10:22:50;96474.41;;;16.98;54.03
37892;BME280;45797;47.466;9.486;2023-01-01T10:27:57;96475.56;;;17.14;53.74
37892;BME280;45797;47.466;9.486;2023-01-01T10:32:59;96461.84;;;17.30;53.55
37892;BME280;45797;47.466;9.486;2023-01-01T10:38:03;96456.44;;;17.51;53.63
37892;BME280;45797;47.466;9.486;2023-01-01T10:43:10;96468.09;;;17.69;53.64
37892;BME280;45797;47.466;9.486;2023-01-01T10:48:20;96469.66;;;17.82;52.72
37892;BME280;45797;47.466;9.486;2023-01-01T10:53:37;96462.91;;;17.68;53.09
37892;BME280;45797;47.466;9.486;2023-01-01T10:58:56;96442.13;;;17.63;53.96
37892;BME280;45797;47.466;9.486;2023-01-01T11:04:18;96436.13;;;17.71;54.10
37892;BME280;45797;47.466;9.486;2023-01-01T11:09:26;96418.16;;;17.84;53.59
37892;BME280;45797;47.466;9.486;2023-01-01T11:19:52;96408.25;;;18.06;53.39
37892;BME280;45797;47.466;9.486;2023-01-01T11:25:01;96400.31;;;17.96;53.90
37892;BME280;45797;47.466;9.486;2023-01-01T11:30:25;96389.41;;;17.89;54.12
37892;BME280;45797;47.466;9.486;2023-01-01T11:35:29;96378.56;;;17.83;54.45
37892;BME280;45797;47.466;9.486;2023-01-01T11:40:44;96378.13;;;17.78;54.30
37892;BME280;45797;47.466;9.486;2023-01-01T11:45:52;96374.50;;;17.79;54.78
37892;BME280;45797;47.466;9.486;2023-01-01T11:50:58;96361.38;;;17.87;54.88
37892;BME280;45797;47.466;9.486;2023-01-01T12:01:51;96350.78;;;17.87;54.59
37892;BME280;45797;47.466;9.486;2023-01-01T12:07:08;96354.13;;;17.89;54.83
37892;BME280;45797;47.466;9.486;2023-01-01T12:17:42;96361.81;;;17.73;55.04
37892;BME280;45797;47.466;9.486;2023-01-01T12:22:46;96355.94;;;17.79;55.34
37892;BME280;45797;47.466;9.486;2023-01-01T12:28:02;96341.00;;;17.97;54.70
37892;BME280;45797;47.466;9.486;2023-01-01T12:39:03;96336.75;;;18.23;54.14
37892;BME280;45797;47.466;9.486;2023-01-01T12:49:50;96328.88;;;18.41;53.54
37892;BME280;45797;47.466;9.486;2023-01-01T13:00:17;96321.25;;;18.56;53.20
37892;BME280;45797;47.466;9.486;2023-01-01T13:05:37;96329.53;;;18.53;53.18
37892;BME280;45797;47.466;9.486;2023-01-01T13:10:46;96314.06;;;18.48;53.33
37892;BME280;45797;47.466;9.486;2023-01-01T13:16:03;96311.81;;;18.44;53.29
37892;BME280;45797;47.466;9.486;2023-01-01T13:21:25;96305.97;;;18.40;53.55
37892;BME280;45797;47.466;9.486;2023-01-01T13:36:39;96299.44;;;18.35;53.61
37892;BME280;45797;47.466;9.486;2023-01-01T13:41:43;96299.06;;;18.30;54.00
37892;BME280;45797;47.466;9.486;2023-01-01T13:47:02;96296.13;;;18.23;53.47
37892;BME280;45797;47.466;9.486;2023-01-01T14:02:50;96297.38;;;17.62;54.77
37892;BME280;45797;47.466;9.486;2023-01-01T14:07:58;96296.66;;;17.41;55.01
37892;BME280;45797;47.466;9.486;2023-01-01T14:18:39;96297.22;;;16.96;55.40
37892;BME280;45797;47.466;9.486;2023-01-01T14:23:47;96305.81;;;16.79;55.79
37892;BME280;45797;47.466;9.486;2023-01-01T14:28:55;96299.63;;;16.59;55.94
37892;BME280;45797;47.466;9.486;2023-01-01T14:33:57;96299.56;;;16.40;56.49
37892;BME280;45797;47.466;9.486;2023-01-01T14:38:58;96291.13;;;16.25;56.38
37892;BME280;45797;47.466;9.486;2023-01-01T14:44:23;96288.41;;;16.06;56.32
37892;BME280;45797;47.466;9.486;2023-01-01T14:49:36;96281.53;;;15.93;56.45
37892;BME280;45797;47.466;9.486;2023-01-01T14:54:42;96281.59;;;15.82;57.10
37892;BME280;45797;47.466;9.486;2023-01-01T14:59:49;96282.78;;;15.68;56.91
37892;BME280;45797;47.466;9.486;2023-01-01T15:05:19;96280.81;;;15.50;56.98
37892;BME280;45797;47.466;9.486;2023-01-01T15:10:27;96283.13;;;15.43;57.31
37892;BME280;45797;47.466;9.486;2023-01-01T15:26:40;96285.31;;;15.06;57.70
37892;BME280;45797;47.466;9.486;2023-01-01T15:31:47;96281.06;;;14.94;57.92
37892;BME280;45797;47.466;9.486;2023-01-01T15:36:51;96275.13;;;14.80;58.24
37892;BME280;45797;47.466;9.486;2023-01-01T15:41:52;96274.41;;;14.67;58.25
37892;BME280;45797;47.466;9.486;2023-01-01T15:47:12;96275.88;;;14.49;58.54
37892;BME280;45797;47.466;9.486;2023-01-01T15:52:19;96275.16;;;14.36;59.03
37892;BME280;45797;47.466;9.486;2023-01-01T15:57:22;96271.09;;;14.20;59.47
37892;BME280;45797;47.466;9.486;2023-01-01T16:07:27;96276.38;;;13.98;59.69
37892;BME280;45797;47.466;9.486;2023-01-01T16:12:39;96275.41;;;13.88;59.66
37892;BME280;45797;47.466;9.486;2023-01-01T16:17:54;96275.88;;;13.82;59.82
37892;BME280;45797;47.466;9.486;2023-01-01T16:22:54;96286.78;;;13.77;59.98
37892;BME280;45797;47.466;9.486;2023-01-01T16:28:03;96291.56;;;13.72;59.96
37892;BME280;45797;47.466;9.486;2023-01-01T16:33:14;96283.78;;;13.70;59.72
37892;BME280;45797;47.466;9.486;2023-01-01T16:38:15;96286.16;;;13.73;59.98
37892;BME280;45797;47.466;9.486;2023-01-01T16:43:16;96289.53;;;13.76;59.84
37892;BME280;45797;47.466;9.486;2023-01-01T16:48:18;96283.66;;;13.72;60.33
37892;BME280;45797;47.466;9.486;2023-01-01T16:53:20;96279.00;;;13.76;59.94
37892;BME280;45797;47.466;9.486;2023-01-01T16:58:20;96277.69;;;13.70;60.31
37892;BME280;45797;47.466;9.486;2023-01-01T17:03:23;96276.69;;;13.60;60.58
37892;BME280;45797;47.466;9.486;2023-01-01T17:08:24;96271.53;;;13.47;60.44
37892;BME280;45797;47.466;9.486;2023-01-01T17:13:27;96271.53;;;13.47;60.23
37892;BME280;45797;47.466;9.486;2023-01-01T17:18:36;96249.41;;;13.50;60.28
37892;BME280;45797;47.466;9.486;2023-01-01T17:23:38;96245.25;;;13.58;60.28
37892;BME280;45797;47.466;9.486;2023-01-01T17:28:42;96246.78;;;13.61;60.15
37892;BME280;45797;47.466;9.486;2023-01-01T17:33:46;96241.91;;;13.67;59.78
37892;BME280;45797;47.466;9.486;2023-01-01T17:38:47;96238.56;;;13.65;59.94
37892;BME280;45797;47.466;9.486;2023-01-01T17:43:50;96241.19;;;13.65;59.29
37892;BME280;45797;47.466;9.486;2023-01-01T17:48:59;96227.41;;;13.62;59.91
37892;BME280;45797;47.466;9.486;2023-01-01T17:54:12;96226.31;;;13.53;60.13
37892;BME280;45797;47.466;9.486;2023-01-01T17:59:13;96228.09;;;13.53;60.11
37892;BME280;45797;47.466;9.486;2023-01-01T18:09:38;96237.47;;;13.46;60.05
37892;BME280;45797;47.466;9.486;2023-01-01T18:14:39;96246.41;;;13.43;60.27
37892;BME280;45797;47.466;9.486;2023-01-01T18:19:48;96248.81;;;13.46;59.83
37892;BME280;45797;47.466;9.486;2023-01-01T18:24:50;96243.56;;;13.46;60.42
37892;BME280;45797;47.466;9.486;2023-01-01T18:30:01;96234.31;;;13.40;60.21
37892;BME280;45797;47.466;9.486;2023-01-01T18:35:04;96242.09;;;13.42;60.22
37892;BME280;45797;47.466;9.486;2023-01-01T18:40:10;96234.19;;;13.42;60.29
37892;BME280;45797;47.466;9.486;2023-01-01T18:45:23;96235.41;;;13.38;60.18
37892;BME280;45797;47.466;9.486;2023-01-01T18:50:25;96217.94;;;13.37;60.62
37892;BME280;45797;47.466;9.486;2023-01-01T18:55:29;96224.75;;;13.39;60.48
37892;BME280;45797;47.466;9.486;2023-01-01T19:00:30;96231.09;;;13.37;60.29
37892;BME280;45797;47.466;9.486;2023-01-01T19:05:34;96240.66;;;13.38;60.71
37892;BME280;45797;47.466;9.486;2023-01-01T19:10:53;96246.38;;;13.32;60.48
37892;BME280;45797;47.466;9.486;2023-01-01T19:21:22;96249.28;;;13.40;60.20
37892;BME280;45797;47.466;9.486;2023-01-01T19:26:39;96253.94;;;13.36;60.72
37892;BME280;45797;47.466;9.486;2023-01-01T19:31:39;96237.53;;;13.33;61.07
37892;BME280;45797;47.466;9.486;2023-01-01T19:36:42;96247.81;;;13.36;60.73
37892;BME280;45797;47.466;9.486;2023-01-01T19:41:43;96251.41;;;13.35;60.43
37892;BME280;45797;47.466;9.486;2023-01-01T19:46:48;96258.13;;;13.39;60.53
37892;BME280;45797;47.466;9.486;2023-01-01T19:52:15;96260.63;;;13.40;60.44
37892;BME280;45797;47.466;9.486;2023-01-01T19:57:20;96266.03;;;13.39;60.82
37892;BME280;45797;47.466;9.486;2023-01-01T20:02:21;96259.53;;;13.32;60.90
37892;BME280;45797;47.466;9.486;2023-01-01T20:07:26;96256.56;;;13.36;61.08
37892;BME280;45797;47.466;9.486;2023-01-01T20:12:26;96257.88;;;13.42;60.73
37892;BME280;45797;47.466;9.486;2023-01-01T20:17:27;96258.38;;;13.47;60.87
37892;BME280;45797;47.466;9.486;2023-01-01T20:22:29;96263.16;;;13.42;60.86
37892;BME280;45797;47.466;9.486;2023-01-01T20:27:31;96269.25;;;13.42;61.02
37892;BME280;45797;47.466;9.486;2023-01-01T20:32:33;96263.53;;;13.49;60.87
37892;BME280;45797;47.466;9.486;2023-01-01T20:37:35;96265.09;;;13.51;60.76
37892;BME280;45797;47.466;9.486;2023-01-01T20:42:38;96264.25;;;13.51;61.19
37892;BME280;45797;47.466;9.486;2023-01-01T20:47:41;96262.19;;;13.54;60.85
37892;BME280;45797;47.466;9.486;2023-01-01T20:52:41;96266.88;;;13.51;60.91
37892;BME280;45797;47.466;9.486;2023-01-01T20:57:46;96267.13;;;13.48;61.23
37892;BME280;45797;47.466;9.486;2023-01-01T21:02:49;96261.97;;;13.46;60.91
37892;BME280;45797;47.466;9.486;2023-01-01T21:07:50;96262.31;;;13.41;61.27
37892;BME280;45797;47.466;9.486;2023-01-01T21:12:52;96256.34;;;13.39;61.22
37892;BME280;45797;47.466;9.486;2023-01-01T21:17:55;96254.88;;;13.35;61.34
37892;BME280;45797;47.466;9.486;2023-01-01T21:23:12;96246.81;;;13.26;61.60
37892;BME280;45797;47.466;9.486;2023-01-01T21:28:32;96246.47;;;13.19;62.03
37892;BME280;45797;47.466;9.486;2023-01-01T21:33:34;96243.72;;;13.21;62.10
37892;BME280;45797;47.466;9.486;2023-01-01T21:38:50;96238.28;;;13.11;61.82
37892;BME280;45797;47.466;9.486;2023-01-01T21:43:56;96228.94;;;13.07;62.49
37892;BME280;45797;47.466;9.486;2023-01-01T21:54:48;96242.25;;;12.81;62.75
37892;BME280;45797;47.466;9.486;2023-01-01T22:05:37;96247.16;;;12.62;62.97
37892;BME280;45797;47.466;9.486;2023-01-01T22:10:51;96242.69;;;12.51;63.18
37892;BME280;45797;47.466;9.486;2023-01-01T22:15:52;96242.06;;;12.48;63.33
37892;BME280;45797;47.466;9.486;2023-01-01T22:21:13;96241.88;;;12.38;63.68
37892;BME280;45797;47.466;9.486;2023-01-01T22:26:26;96228.88;;;12.37;63.22
37892;BME280;45797;47.466;9.486;2023-01-01T22:31:32;96238.53;;;12.36;63.44
37892;BME280;45797;47.466;9.486;2023-01-01T22:36:35;96230.25;;;12.29;63.50
37892;BME280;45797;47.466;9.486;2023-01-01T22:41:36;96223.44;;;12.27;63.98
37892;BME280;45797;47.466;9.486;2023-01-01T22:46:56;96223.78;;;12.22;63.65
37892;BME280;45797;47.466;9.486;2023-01-01T22:51:57;96221.03;;;12.24;63.81
37892;BME280;45797;47.466;9.486;2023-01-01T22:56:57;96218.63;;;12.21;63.68
37892;BME280;45797;47.466;9.486;2023-01-01T23:02:04;96214.03;;;12.12;63.96
37892;BME280;45797;47.466;9.486;2023-01-01T23:07:07;96210.91;;;12.07;64.09
37892;BME280;45797;47.466;9.486;2023-01-01T23:12:38;96209.16;;;11.94;64.17
37892;BME280;45797;47.466;9.486;2023-01-01T23:17:40;96207.44;;;11.93;64.39
37892;BME280;45797;47.466;9.486;2023-01-01T23:22:42;96212.09;;;11.90;64.44
37892;BME280;45797;47.466;9.486;2023-01-01T23:27:46;96208.31;;;11.94;64.00
37892;BME280;45797;47.466;9.486;2023-01-01T23:32:50;96206.31;;;11.97;64.11
37892;BME280;45797;47.466;9.486;2023-01-01T23:37:51;96203.44;;;12.00;63.93
37892;BME280;45797;47.466;9.486;2023-01-01T23:42:51;96208.69;;;12.00;64.01
37892;BME280;45797;47.466;9.486;2023-01-01T23:47:52;96202.38;;;12.03;63.79
37892;BME280;45797;47.466;9.486;2023-01-01T23:52:55;96203.84;;;12.07;63.63
37892;BME280;45797;47.466;9.486;2023-01-01T23:57:59;96194.81;;;12.11;63.84
